Time;durP1;ratioP1;P1;durP2;ratioP2;P2;SDS_P1;SDS_P2;PMS_P1;PMS_P2;Temp;Humidity;BMP_temperature;BMP_pressure;BME280_temperature;BME280_humidity;BME280_pressure;Samples;Min_cycle;Max_cycle;Signal;HPM_P1;HPM_P2
2021/11/06 00:02:36;;;;;;;14.10;10.00;;;;;;;8.52;71.54;100816.48;139372;1190;108530;-83
2021/11/06 00:05:41;;;;;;;14.50;10.60;;;;;;;8.50;71.72;100816.88;139400;1190;108539;-81
2021/11/06 00:08:47;;;;;;;13.80;10.30;;;;;;;8.48;71.74;100815.80;139282;1190;108697;-83
2021/11/06 00:11:52;;;;;;;13.40;9.70;;;;;;;8.42;71.79;100810.38;139352;1190;108709;-82
2021/11/06 00:14:58;;;;;;;12.90;9.00;;;;;;;8.38;71.94;100810.48;139385;1190;108554;-84
2021/11/06 00:18:03;;;;;;;12.60;9.50;;;;;;;8.37;72.07;100808.11;139349;1188;107548;-84
2021/11/06 00:21:08;;;;;;;15.10;10.10;;;;;;;8.38;71.89;100807.13;139438;1190;108435;-83
2021/11/06 00:24:14;;;;;;;14.70;10.50;;;;;;;8.42;72.00;100808.64;139438;1196;108178;-86
2021/11/06 00:27:19;;;;;;;14.10;10.40;;;;;;;8.46;72.07;100805.11;139390;1190;108687;-84
2021/11/06 00:30:24;;;;;;;15.90;11.40;;;;;;;8.46;72.14;100803.85;139369;1190;108573;-83
2021/11/06 00:33:30;;;;;;;14.80;11.30;;;;;;;8.43;72.05;100803.60;139364;1190;108490;-83
2021/11/06 00:36:35;;;;;;;15.20;10.30;;;;;;;8.40;72.29;100806.98;139355;1190;108457;-83
2021/11/06 00:39:40;;;;;;;14.20;9.80;;;;;;;8.38;72.20;100816.70;139430;1190;108464;-81
2021/11/06 00:42:47;;;;;;;14.00;10.00;;;;;;;8.38;72.35;100821.48;139379;1191;108434;-81
2021/11/06 00:45:52;;;;;;;14.90;10.60;;;;;;;8.41;72.32;100818.81;139414;1190;108555;-80
2021/11/06 00:48:57;;;;;;;13.40;10.20;;;;;;;8.45;72.22;100819.77;139342;1190;108419;-79
2021/11/06 00:52:03;;;;;;;13.80;10.80;;;;;;;8.46;72.29;100817.70;139348;1189;108472;-80
2021/11/06 00:55:09;;;;;;;14.70;11.30;;;;;;;8.45;72.18;100819.01;139309;1190;108673;-79
2021/11/06 00:58:15;;;;;;;14.90;11.70;;;;;;;8.43;72.42;100824.17;139323;1190;108378;-80
2021/11/06 01:01:21;;;;;;;13.20;9.50;;;;;;;8.41;72.35;100820.02;139254;1191;108301;-82
2021/11/06 01:04:26;;;;;;;14.40;9.80;;;;;;;8.40;72.38;100826.29;139369;1190;108428;-81
2021/11/06 01:07:31;;;;;;;15.50;11.00;;;;;;;8.40;72.66;100823.27;139829;1190;108350;-84
2021/11/06 01:10:37;;;;;;;14.00;10.70;;;;;;;8.43;72.37;100831.27;139558;1189;108433;-83
2021/11/06 01:13:42;;;;;;;13.70;10.70;;;;;;;8.43;72.52;100835.88;139772;1190;108399;-81
2021/11/06 01:16:48;;;;;;;14.80;10.90;;;;;;;8.41;72.64;100836.38;139356;1190;106913;-81
2021/11/06 01:19:54;;;;;;;14.60;11.20;;;;;;;8.40;72.47;100840.36;139358;1189;108204;-80
2021/11/06 01:22:59;;;;;;;14.40;11.00;;;;;;;8.37;72.52;100843.21;139261;1174;108563;-82
2021/11/06 01:26:05;;;;;;;13.40;9.30;;;;;;;8.36;72.61;100844.77;139360;1188;108176;-82
2021/11/06 01:29:10;;;;;;;11.50;8.70;;;;;;;8.33;72.86;100845.70;139257;1190;107424;-83
2021/11/06 01:32:16;;;;;;;14.70;10.30;;;;;;;8.36;72.71;100850.23;139373;1189;107397;-81
2021/11/06 01:35:21;;;;;;;14.80;10.90;;;;;;;8.42;72.71;100855.75;139484;1190;108962;-82
2021/11/06 01:38:27;;;;;;;13.90;10.90;;;;;;;8.48;73.15;100857.66;139423;1190;108405;-81
2021/11/06 01:41:34;;;;;;;14.30;11.00;;;;;;;8.50;72.81;100859.59;139326;1190;108488;-81
2021/11/06 01:44:39;;;;;;;14.20;11.20;;;;;;;8.52;72.68;100856.42;139281;1190;108082;-82
2021/11/06 01:47:45;;;;;;;13.90;9.70;;;;;;;8.52;72.76;100858.21;139356;1190;108564;-83
2021/11/06 01:50:51;;;;;;;11.70;8.90;;;;;;;8.53;72.85;100861.11;139449;1190;108408;-84
2021/11/06 01:53:56;;;;;;;12.30;10.20;;;;;;;8.56;72.73;100860.66;139397;1190;108399;-82
2021/11/06 01:57:03;;;;;;;13.50;10.50;;;;;;;8.61;72.80;100862.37;139421;1189;108493;-84
2021/11/06 02:00:14;;;;;;;12.90;10.40;;;;;;;8.65;72.71;100868.26;139430;1190;108426;-84
2021/11/06 02:03:19;;;;;;;14.00;11.10;;;;;;;8.70;72.60;100871.80;139532;1189;107469;-86
2021/11/06 02:06:25;;;;;;;13.00;10.70;;;;;;;8.72;72.68;100874.85;139564;1190;106456;-86
2021/11/06 02:09:30;;;;;;;13.10;10.60;;;;;;;8.72;72.80;100878.41;139434;1190;108570;-84
2021/11/06 02:12:36;;;;;;;12.90;9.80;;;;;;;8.68;72.76;100876.26;139328;1190;108623;-84
2021/11/06 02:15:42;;;;;;;11.10;8.80;;;;;;;8.64;72.80;100878.62;139407;1190;109483;-84
2021/11/06 02:18:49;;;;;;;13.20;9.80;;;;;;;8.65;72.84;100873.80;139474;1193;108391;-84
2021/11/06 02:21:55;;;;;;;12.30;9.90;;;;;;;8.68;72.95;100877.13;139424;1189;108808;-88
2021/11/06 02:25:02;;;;;;;12.70;9.80;;;;;;;8.72;72.96;100875.76;139560;1191;108441;-86
2021/11/06 02:28:07;;;;;;;12.10;9.80;;;;;;;8.73;72.72;100869.11;139659;1191;108353;-88
2021/11/06 02:31:13;;;;;;;10.90;9.30;;;;;;;8.74;72.82;100867.61;139523;1189;107474;-84
2021/11/06 02:34:19;;;;;;;12.10;10.20;;;;;;;8.72;72.79;100863.13;139343;1190;109620;-84
2021/11/06 02:37:24;;;;;;;11.50;8.70;;;;;;;8.69;72.79;100863.73;139462;1189;108468;-83
2021/11/06 02:40:29;;;;;;;10.50;8.00;;;;;;;8.66;72.79;100867.00;139371;1181;108479;-83
2021/11/06 02:43:35;;;;;;;12.70;8.90;;;;;;;8.65;72.68;100871.14;139350;1190;108552;-84
2021/11/06 02:46:42;;;;;;;10.40;8.80;;;;;;;8.69;72.73;100869.58;139392;1190;108424;-82
2021/11/06 02:49:47;;;;;;;10.20;8.80;;;;;;;8.75;72.71;100870.16;139480;1190;108440;-84
2021/11/06 02:52:53;;;;;;;10.30;9.10;;;;;;;8.77;72.59;100875.80;139400;1191;108519;-85
2021/11/06 02:55:58;;;;;;;11.50;9.50;;;;;;;8.74;72.52;100875.02;139374;1189;108509;-83
2021/11/06 02:59:03;;;;;;;11.60;9.40;;;;;;;8.72;72.58;100878.76;139448;1190;108539;-83
2021/11/06 03:02:09;;;;;;;10.60;9.00;;;;;;;8.66;72.62;100886.11;139399;1190;107431;-79
2021/11/06 03:05:15;;;;;;;10.10;8.40;;;;;;;8.64;72.64;100883.81;139232;1190;106960;-80
2021/11/06 03:08:21;;;;;;;10.70;8.80;;;;;;;8.60;72.59;100889.23;139309;1190;108558;-85
2021/11/06 03:11:26;;;;;;;12.60;9.90;;;;;;;8.61;72.67;100889.20;139406;1190;108584;-83
2021/11/06 03:14:34;;;;;;;13.10;10.70;;;;;;;8.61;72.65;100887.63;139409;1174;107550;-85
2021/11/06 03:17:39;;;;;;;12.70;10.20;;;;;;;8.59;72.49;100884.75;139418;1190;108618;-80
2021/11/06 03:20:45;;;;;;;12.60;10.30;;;;;;;8.56;72.62;100881.42;139390;1188;108436;-82
2021/11/06 03:23:51;;;;;;;13.00;10.70;;;;;;;8.52;72.61;100887.08;139411;1189;109159;-80
2021/11/06 03:26:56;;;;;;;10.50;8.90;;;;;;;8.44;72.57;100883.63;139426;1192;108800;-80
2021/11/06 03:30:02;;;;;;;11.70;9.00;;;;;;;8.34;72.56;100888.67;139305;1189;108637;-81
2021/11/06 03:33:08;;;;;;;11.30;9.80;;;;;;;8.28;72.72;100889.73;139403;1190;109303;-80
2021/11/06 03:36:13;;;;;;;12.00;9.90;;;;;;;8.23;72.50;100890.83;139350;1191;108444;-83
2021/11/06 03:39:19;;;;;;;11.80;10.10;;;;;;;8.21;72.59;100894.10;139346;1190;108488;-81
2021/11/06 03:42:24;;;;;;;11.60;9.90;;;;;;;8.18;72.69;100891.67;139451;1196;108364;-81
2021/11/06 03:45:30;;;;;;;12.20;9.60;;;;;;;8.13;72.80;100892.63;139288;1190;108570;-81
2021/11/06 03:48:35;;;;;;;12.50;10.50;;;;;;;8.03;72.87;100895.17;139326;1190;108585;-82
2021/11/06 03:51:41;;;;;;;11.00;8.90;;;;;;;7.96;72.79;100898.63;139368;1190;108468;-81
2021/11/06 03:54:47;;;;;;;10.30;7.90;;;;;;;7.91;72.83;100906.62;139287;1190;108345;-80
2021/11/06 03:57:52;;;;;;;12.10;9.90;;;;;;;7.93;72.91;100910.17;139396;1190;108503;-80
2021/11/06 04:00:59;;;;;;;11.20;9.20;;;;;;;7.97;73.03;100912.72;139370;1190;108566;-78
2021/11/06 04:04:05;;;;;;;12.30;9.50;;;;;;;8.02;73.19;100912.13;139404;1190;108387;-74
2021/11/06 04:07:10;;;;;;;13.30;9.40;;;;;;;8.07;72.85;100907.84;139343;1190;108500;-82
2021/11/06 04:10:15;;;;;;;12.00;10.00;;;;;;;8.09;73.02;100911.77;139378;1190;108482;-76
2021/11/06 04:13:21;;;;;;;12.00;10.00;;;;;;;8.07;72.95;100911.39;139292;1189;107508;-76
2021/11/06 04:16:26;;;;;;;10.80;7.90;;;;;;;8.04;73.07;100911.91;139292;1184;108408;-75
2021/11/06 04:19:32;;;;;;;11.10;8.40;;;;;;;8.05;73.07;100905.11;139455;1189;108372;-76
2021/11/06 04:22:37;;;;;;;10.20;8.50;;;;;;;8.11;73.11;100905.90;139204;1190;108567;-77
2021/11/06 04:25:44;;;;;;;11.70;8.70;;;;;;;8.17;72.96;100906.33;139289;1190;108430;-78
2021/11/06 04:28:50;;;;;;;11.60;8.50;;;;;;;8.22;73.08;100909.47;139253;1190;109577;-77
2021/11/06 04:31:55;;;;;;;10.60;8.70;;;;;;;8.26;72.86;100910.38;139259;1189;108272;-77
2021/11/06 04:35:01;;;;;;;11.60;8.40;;;;;;;8.29;72.88;100911.23;139235;1190;108438;-77
2021/11/06 04:38:06;;;;;;;26.30;18.90;;;;;;;8.30;72.96;100912.23;139272;1190;107388;-76
2021/11/06 04:41:11;;;;;;;11.50;8.90;;;;;;;8.30;72.96;100906.91;139259;1191;108718;-77
2021/11/06 04:44:17;;;;;;;116.00;59.60;;;;;;;8.29;72.93;100903.96;139258;1188;108471;-75
2021/11/06 04:47:23;;;;;;;101.20;53.20;;;;;;;8.30;72.95;100906.57;139323;1189;108422;-77
2021/11/06 04:50:28;;;;;;;196.00;57.10;;;;;;;8.31;72.88;100907.39;139285;1189;108418;-77
2021/11/06 04:53:33;;;;;;;109.70;57.90;;;;;;;8.31;72.73;100905.63;139253;1190;108483;-76
2021/11/06 04:56:39;;;;;;;99.40;51.20;;;;;;;8.31;72.67;100914.34;139220;1190;107094;-77
2021/11/06 04:59:44;;;;;;;248.20;129.40;;;;;;;8.27;72.82;100907.46;139277;1189;108508;-75
2021/11/06 05:02:50;;;;;;;190.60;95.20;;;;;;;8.24;72.80;100903.48;139312;1190;108230;-76
2021/11/06 05:05:55;;;;;;;269.60;114.30;;;;;;;8.16;72.72;100903.74;139386;1190;108879;-74
2021/11/06 05:09:00;;;;;;;206.30;93.10;;;;;;;8.11;73.01;100905.38;139322;1193;108830;-77
2021/11/06 05:12:07;;;;;;;89.00;42.50;;;;;;;8.09;72.79;100902.73;139297;1190;108430;-77
2021/11/06 05:15:13;;;;;;;157.60;80.80;;;;;;;8.08;72.96;100902.25;139332;1190;108672;-78
2021/11/06 05:18:20;;;;;;;135.20;73.30;;;;;;;8.09;72.85;100905.02;139257;1190;108394;-77
2021/11/06 05:21:25;;;;;;;589.40;302.50;;;;;;;8.07;72.93;100906.75;139243;1190;109397;-77
2021/11/06 05:24:32;;;;;;;203.00;88.60;;;;;;;8.06;73.10;100908.79;139282;1190;107835;-77
2021/11/06 05:27:38;;;;;;;152.90;82.40;;;;;;;8.03;72.97;100915.01;139302;1196;108199;-76
2021/11/06 05:30:44;;;;;;;155.60;73.40;;;;;;;7.99;73.16;100916.60;139290;1190;108399;-77
2021/11/06 05:33:50;;;;;;;76.90;37.90;;;;;;;7.97;73.14;100917.11;139331;1189;108567;-76
2021/11/06 05:36:55;;;;;;;326.90;171.70;;;;;;;7.98;73.24;100915.11;139424;1189;107056;-76
2021/11/06 05:40:01;;;;;;;265.30;136.90;;;;;;;7.98;73.22;100919.84;139281;1189;108065;-76
2021/11/06 05:43:06;;;;;;;259.20;138.50;;;;;;;7.99;73.26;100924.58;139315;1190;108427;-76
2021/11/06 05:46:12;;;;;;;144.00;78.00;;;;;;;7.96;73.49;100928.76;139279;1190;108485;-76
2021/11/06 05:49:17;;;;;;;291.20;184.80;;;;;;;7.93;73.40;100934.27;139611;1190;108418;-79
2021/11/06 05:52:23;;;;;;;43.60;27.20;;;;;;;7.89;73.31;100940.98;139456;1190;108469;-78
2021/11/06 05:55:28;;;;;;;18.70;13.50;;;;;;;7.84;73.64;100946.27;139615;1189;108490;-78
2021/11/06 05:58:33;;;;;;;13.50;9.50;;;;;;;7.83;73.58;100942.65;139397;1189;108645;-77
2021/11/06 06:01:39;;;;;;;13.00;9.20;;;;;;;7.84;73.64;100948.19;139316;1189;108644;-82
2021/11/06 06:04:45;;;;;;;15.20;12.40;;;;;;;7.83;73.50;100946.70;139404;1190;108465;-83
2021/11/06 06:07:51;;;;;;;17.10;13.50;;;;;;;7.83;73.60;100946.91;139400;1190;108421;-81
2021/11/06 06:10:56;;;;;;;47.60;34.90;;;;;;;7.82;73.51;100949.08;139611;1189;108481;-82
2021/11/06 06:14:03;;;;;;;17.40;11.70;;;;;;;7.81;73.57;100961.36;139409;1190;108441;-82
2021/11/06 06:17:09;;;;;;;70.30;38.90;;;;;;;7.80;73.67;100968.52;139344;1190;108517;-81
2021/11/06 06:20:15;;;;;;;160.70;84.40;;;;;;;7.81;73.66;100963.13;139390;1190;108585;-82
2021/11/06 06:23:20;;;;;;;176.20;95.50;;;;;;;7.84;73.77;100964.16;139455;1190;109581;-80
2021/11/06 06:26:26;;;;;;;52.50;29.60;;;;;;;7.88;73.44;100963.67;139396;1190;108518;-81
2021/11/06 06:29:31;;;;;;;47.30;29.50;;;;;;;7.92;73.71;100963.36;139789;1189;108480;-80
2021/11/06 06:32:38;;;;;;;18.40;12.30;;;;;;;7.96;73.70;100957.79;139529;1189;108485;-82
2021/11/06 06:35:43;;;;;;;87.50;41.60;;;;;;;7.98;73.63;100959.90;139304;1189;108366;-84
2021/11/06 06:38:48;;;;;;;159.60;85.10;;;;;;;7.99;73.59;100960.36;139489;1189;108269;-81
2021/11/06 06:41:54;;;;;;;113.00;69.20;;;;;;;7.98;73.62;100958.33;139429;1188;106535;-81
2021/11/06 06:45:00;;;;;;;25.20;17.40;;;;;;;7.97;73.69;100957.87;139389;1190;108459;-81
2021/11/06 06:48:05;;;;;;;110.10;75.80;;;;;;;7.99;73.83;100960.89;139340;1190;107377;-83
2021/11/06 06:51:11;;;;;;;70.60;49.40;;;;;;;8.05;73.74;100967.17;139493;1190;108447;-82
2021/11/06 06:54:16;;;;;;;42.10;31.10;;;;;;;8.12;73.69;100976.73;139524;1190;108549;-82
2021/11/06 06:57:22;;;;;;;21.80;15.20;;;;;;;8.16;73.67;100980.31;139474;1190;108564;-82
2021/11/06 07:00:27;;;;;;;35.10;23.80;;;;;;;8.19;73.82;100977.77;139371;1189;108076;-83
2021/11/06 07:03:33;;;;;;;45.90;32.40;;;;;;;8.20;73.63;100984.23;139286;1191;108557;-82
2021/11/06 07:06:38;;;;;;;42.60;30.10;;;;;;;8.22;73.72;100985.11;139470;1189;107942;-83
2021/11/06 07:09:43;;;;;;;30.80;22.00;;;;;;;8.28;73.72;100985.89;139471;1189;108652;-83
2021/11/06 07:12:49;;;;;;;117.60;83.60;;;;;;;8.35;73.43;100991.08;139410;1190;108474;-82
2021/11/06 07:15:54;;;;;;;104.00;74.50;;;;;;;8.40;73.63;100993.86;139405;1189;108463;-81
2021/11/06 07:19:00;;;;;;;76.60;54.20;;;;;;;8.45;73.50;100999.14;139381;1190;108336;-82
2021/11/06 07:22:06;;;;;;;41.40;27.60;;;;;;;8.49;73.44;101002.80;139357;1190;108550;-82
2021/11/06 07:25:13;;;;;;;51.60;35.80;;;;;;;8.50;73.40;101001.27;139434;1190;108509;-83
2021/11/06 07:28:18;;;;;;;59.80;37.40;;;;;;;8.52;73.40;101005.21;139337;1190;108552;-80
2021/11/06 07:31:24;;;;;;;29.60;18.00;;;;;;;8.54;73.33;100998.08;139478;1191;108406;-79
2021/11/06 07:34:30;;;;;;;46.10;29.50;;;;;;;8.58;73.24;100992.77;139463;1190;108362;-79
2021/11/06 07:37:37;;;;;;;22.10;14.10;;;;;;;8.68;73.23;100992.41;139373;1189;108460;-81
2021/11/06 07:40:43;;;;;;;23.90;14.70;;;;;;;8.78;73.04;100985.60;139527;1190;108306;-80
2021/11/06 07:43:49;;;;;;;117.90;81.80;;;;;;;8.84;73.00;100986.16;139340;1189;107700;-79
2021/11/06 07:46:54;;;;;;;45.70;28.80;;;;;;;8.89;72.88;100982.15;139446;1189;108404;-77
2021/11/06 07:50:00;;;;;;;47.10;35.40;;;;;;;8.95;72.97;100977.23;139410;1190;108637;-80
2021/11/06 07:53:06;;;;;;;48.40;33.30;;;;;;;9.01;72.99;100981.41;139482;1191;108323;-81
2021/11/06 07:56:13;;;;;;;20.50;15.00;;;;;;;9.07;72.56;100983.42;139552;1189;108261;-80
2021/11/06 07:59:18;;;;;;;51.30;35.20;;;;;;;9.13;72.83;100989.14;139647;1195;108396;-81
2021/11/06 08:02:24;;;;;;;62.30;40.20;;;;;;;9.25;72.63;100990.98;139614;1190;108377;-80
2021/11/06 08:05:30;;;;;;;46.60;30.90;;;;;;;9.35;72.48;100993.54;139709;1190;109396;-80
2021/11/06 08:08:35;;;;;;;95.80;59.90;;;;;;;9.44;72.39;101000.39;139507;1189;108665;-81
2021/11/06 08:11:41;;;;;;;57.00;33.50;;;;;;;9.50;72.44;101002.80;139723;1190;108599;-79
2021/11/06 08:14:46;;;;;;;54.20;35.40;;;;;;;9.55;72.36;101009.10;139596;1190;108571;-80
2021/11/06 08:17:53;;;;;;;28.40;17.60;;;;;;;9.59;72.28;101005.38;139612;1189;108520;-82
2021/11/06 08:20:59;;;;;;;15.10;9.60;;;;;;;9.59;72.07;101007.35;139688;1190;108472;-80
2021/11/06 08:24:05;;;;;;;47.80;26.90;;;;;;;9.63;71.75;101007.34;139483;1190;108508;-81
2021/11/06 08:27:10;;;;;;;97.80;50.80;;;;;;;9.69;72.09;101015.73;139733;1190;108282;-81
2021/11/06 08:30:16;;;;;;;102.30;54.30;;;;;;;9.82;72.00;101016.38;139583;1190;108599;-82
2021/11/06 08:33:22;;;;;;;79.30;42.50;;;;;;;9.95;71.75;101019.91;139559;1189;108357;-82
2021/11/06 08:36:31;;;;;;;68.70;36.90;;;;;;;10.09;71.34;101016.48;139756;1189;108411;-82
2021/11/06 08:39:37;;;;;;;71.00;42.50;;;;;;;10.21;71.26;101021.45;139518;1188;107833;-82
2021/11/06 08:42:42;;;;;;;110.00;67.40;;;;;;;10.31;71.13;101014.77;139569;1190;108592;-84
2021/11/06 08:45:49;;;;;;;41.90;25.20;;;;;;;10.45;71.43;101017.45;139540;1189;108404;-83
2021/11/06 08:48:55;;;;;;;86.10;52.70;;;;;;;10.64;71.04;101021.34;139571;1190;108309;-82
2021/11/06 08:52:00;;;;;;;44.20;29.40;;;;;;;10.80;70.62;101020.81;139549;1190;108463;-84
2021/11/06 08:55:07;;;;;;;35.10;20.50;;;;;;;10.88;70.28;101024.90;139524;1191;108451;-82
2021/11/06 08:58:13;;;;;;;59.50;40.50;;;;;;;10.95;69.82;101024.14;139540;1189;108332;-83
2021/11/06 09:01:18;;;;;;;40.60;27.50;;;;;;;10.98;70.17;101027.55;139538;1190;108448;-83
2021/11/06 09:04:25;;;;;;;32.20;24.60;;;;;;;11.06;69.83;101027.65;139829;1190;108416;-79
2021/11/06 09:07:32;;;;;;;16.40;10.90;;;;;;;11.07;69.40;101030.21;139645;1180;108213;-82
2021/11/06 09:10:38;;;;;;;37.10;22.80;;;;;;;11.00;69.46;101030.48;139652;1189;108442;-81
2021/11/06 09:13:50;;;;;;;20.70;13.20;;;;;;;11.02;69.05;101027.41;139631;1190;108390;-79
2021/11/06 09:16:56;;;;;;;25.30;14.90;;;;;;;11.07;69.47;101030.73;139463;1190;107541;-80
2021/11/06 09:20:01;;;;;;;9.10;6.30;;;;;;;11.10;69.15;101035.48;139356;1190;108456;-80
2021/11/06 09:23:07;;;;;;;98.90;46.90;;;;;;;11.05;69.62;101028.90;139392;1190;108444;-80
2021/11/06 09:26:12;;;;;;;17.00;10.10;;;;;;;11.05;69.67;101028.98;139479;1190;108496;-81
2021/11/06 09:29:18;;;;;;;11.30;6.80;;;;;;;11.07;69.64;101030.75;139372;1191;108500;-81
2021/11/06 09:32:24;;;;;;;9.40;5.10;;;;;;;11.12;69.55;101032.21;139471;1190;108458;-80
2021/11/06 09:35:29;;;;;;;8.20;5.10;;;;;;;11.15;69.30;101038.72;139484;1189;108432;-80
2021/11/06 09:38:35;;;;;;;8.70;5.00;;;;;;;11.19;68.95;101041.02;139354;1190;107826;-80
2021/11/06 09:41:40;;;;;;;9.40;5.20;;;;;;;11.20;69.32;101041.48;139384;1190;108504;-80
2021/11/06 09:44:46;;;;;;;12.80;5.50;;;;;;;11.27;69.52;101036.74;139377;1190;108564;-80
2021/11/06 09:47:51;;;;;;;10.60;5.90;;;;;;;11.32;68.95;101043.42;139310;1190;108578;-78
2021/11/06 09:50:58;;;;;;;11.80;8.20;;;;;;;11.20;68.58;101043.25;139426;1187;108465;-80
2021/11/06 09:54:06;;;;;;;14.90;9.30;;;;;;;11.13;68.88;101040.51;139613;1189;108348;-81
2021/11/06 09:57:11;;;;;;;10.50;6.00;;;;;;;11.07;68.33;101041.03;139567;1190;108437;-81
2021/11/06 10:00:19;;;;;;;12.30;7.80;;;;;;;11.01;68.69;101034.46;139592;1190;108562;-82
2021/11/06 10:03:24;;;;;;;10.60;5.90;;;;;;;11.04;69.20;101030.83;139521;1189;108790;-82
2021/11/06 10:06:30;;;;;;;15.70;11.10;;;;;;;11.15;68.68;101028.26;139659;1190;107475;-79
2021/11/06 10:09:36;;;;;;;13.20;8.60;;;;;;;11.22;68.92;101020.62;139459;1190;109413;-81
2021/11/06 10:12:55;;;;;;;19.30;12.70;;;;;;;11.28;68.70;101018.27;139631;1180;109581;-82
2021/11/06 10:16:01;;;;;;;33.70;24.40;;;;;;;11.36;68.43;101020.25;139632;1189;107752;-81
2021/11/06 10:19:12;;;;;;;28.40;18.70;;;;;;;11.34;68.42;101014.70;139501;1189;108544;-81
2021/11/06 10:22:25;;;;;;;27.60;19.00;;;;;;;11.36;68.60;101013.13;139611;1181;108480;-81
2021/11/06 10:25:31;;;;;;;39.20;27.20;;;;;;;11.34;68.39;101012.59;140289;1190;107458;-79
2021/11/06 10:28:36;;;;;;;77.60;40.50;;;;;;;11.34;68.46;101010.32;139447;1189;107406;-78
2021/11/06 10:32:05;;;;;;;31.60;20.70;;;;;;;11.39;68.55;101010.02;139625;1188;108327;-82
2021/11/06 10:35:16;;;;;;;26.60;17.60;;;;;;;11.42;68.30;101008.38;139412;1196;108234;-82
2021/11/06 10:38:24;;;;;;;26.20;19.70;;;;;;;11.44;68.72;101006.35;139565;1180;109200;-82
2021/11/06 10:41:31;;;;;;;14.20;8.50;;;;;;;11.51;68.45;101010.58;139429;1190;108513;-82
2021/11/06 10:44:37;;;;;;;28.30;15.00;;;;;;;11.48;68.07;101004.75;139338;1190;107174;-81
2021/11/06 10:47:57;;;;;;;10.70;6.00;;;;;;;11.53;68.12;101000.73;139383;1190;107498;-81
2021/11/06 10:51:05;;;;;;;6.70;4.40;;;;;;;11.50;67.88;100990.69;139415;1190;108546;-80
2021/11/06 10:54:10;;;;;;;9.00;5.40;;;;;;;11.44;68.01;100991.11;139372;1190;108562;-82
2021/11/06 10:57:25;;;;;;;14.00;9.80;;;;;;;11.39;68.06;100989.48;139350;1180;108056;-81
2021/11/06 11:00:30;;;;;;;34.00;20.00;;;;;;;11.37;68.09;100994.86;139391;1180;106769;-82
2021/11/06 11:03:37;;;;;;;32.50;20.00;;;;;;;11.39;68.22;100987.57;139335;1188;108529;-81
2021/11/06 11:06:47;;;;;;;28.70;13.40;;;;;;;11.40;68.09;100977.86;139377;1190;108620;-81
2021/11/06 11:09:52;;;;;;;48.20;32.90;;;;;;;11.38;67.99;100981.23;139362;1190;108445;-81
2021/11/06 11:13:13;;;;;;;13.70;8.80;;;;;;;11.43;68.09;100977.27;139349;1180;108135;-81
2021/11/06 11:16:20;;;;;;;18.60;13.00;;;;;;;11.52;68.00;100975.90;139400;1181;107899;-81
2021/11/06 11:19:40;;;;;;;14.70;11.20;;;;;;;11.64;67.94;100977.93;139455;1190;108741;-82
2021/11/06 11:22:45;;;;;;;16.50;11.90;;;;;;;11.78;67.27;100972.56;139406;1190;108430;-82
2021/11/06 11:25:51;;;;;;;15.20;12.30;;;;;;;11.86;67.20;100972.05;139516;1189;108549;-81
2021/11/06 11:28:57;;;;;;;35.20;24.20;;;;;;;11.89;66.96;100966.06;139328;1190;108623;-82
2021/11/06 11:32:03;;;;;;;45.80;26.60;;;;;;;11.93;67.28;100967.58;139354;1181;108141;-78
2021/11/06 11:35:09;;;;;;;19.30;14.80;;;;;;;11.95;67.08;100970.11;139353;1190;108675;-81
2021/11/06 11:38:15;;;;;;;9.20;6.90;;;;;;;11.96;67.17;100968.26;139451;1189;108573;-81
2021/11/06 11:41:46;;;;;;;141.60;72.30;;;;;;;11.95;67.16;100970.11;139532;1184;107152;-81
2021/11/06 11:45:16;;;;;;;92.90;53.30;;;;;;;11.92;66.87;100962.58;139397;1181;107715;-80
2021/11/06 11:48:25;;;;;;;57.20;30.10;;;;;;;11.83;66.66;100960.37;139495;1190;108544;-80
2021/11/06 11:51:32;;;;;;;30.70;16.90;;;;;;;11.76;66.76;100960.24;139438;1196;108099;-81
2021/11/06 11:54:57;;;;;;;34.00;18.60;;;;;;;11.66;66.09;100955.50;139437;1190;108398;-80
2021/11/06 11:58:24;;;;;;;81.20;41.50;;;;;;;11.58;66.44;100952.34;139357;1190;108096;-81
2021/11/06 12:01:30;;;;;;;130.00;61.70;;;;;;;11.51;66.47;100953.29;139371;1180;107142;-81
2021/11/06 12:04:35;;;;;;;132.40;66.50;;;;;;;11.49;66.47;100949.78;139371;1190;108518;-82
2021/11/06 12:07:41;;;;;;;166.10;91.10;;;;;;;11.52;66.90;100951.77;139358;1180;108662;-81
2021/11/06 12:10:55;;;;;;;31.50;20.90;;;;;;;11.58;66.66;100947.15;139318;1180;108481;-81
2021/11/06 12:14:15;;;;;;;38.30;30.60;;;;;;;11.75;66.59;100951.81;139331;1180;108266;-81
2021/11/06 12:17:33;;;;;;;26.00;21.60;;;;;;;11.95;66.64;100954.46;139359;1190;108646;-81
2021/11/06 12:20:39;;;;;;;13.00;10.20;;;;;;;12.09;66.69;100955.27;139409;1190;107570;-81
2021/11/06 12:23:45;;;;;;;28.50;24.60;;;;;;;12.17;66.29;100953.80;139366;1180;108584;-81
2021/11/06 12:26:55;;;;;;;42.60;32.60;;;;;;;12.25;66.11;100953.25;139438;1184;108430;-82
2021/11/06 12:30:01;;;;;;;14.90;11.30;;;;;;;12.27;65.87;100948.05;139374;1190;108595;-79
2021/11/06 12:33:07;;;;;;;7.60;5.10;;;;;;;12.17;65.66;100946.80;139573;1190;108579;-81
2021/11/06 12:36:19;;;;;;;5.90;4.20;;;;;;;12.09;65.72;100955.64;139381;1181;108515;-81
2021/11/06 12:39:54;;;;;;;10.20;5.30;;;;;;;11.99;65.23;100953.05;139430;1187;108668;-81
2021/11/06 12:43:14;;;;;;;16.70;9.60;;;;;;;11.84;65.56;100952.57;139432;1190;108319;-81
2021/11/06 12:46:24;;;;;;;6.00;3.70;;;;;;;11.76;65.35;100957.63;139315;1181;107496;-81
2021/11/06 12:49:30;;;;;;;21.90;17.90;;;;;;;11.60;65.24;100964.09;139452;1189;108540;-81
2021/11/06 12:52:42;;;;;;;23.10;18.00;;;;;;;11.44;65.19;100964.52;139441;1190;108679;-82
2021/11/06 12:55:48;;;;;;;61.60;40.60;;;;;;;11.39;65.81;100962.96;139385;1180;108397;-81
2021/11/06 12:59:04;;;;;;;23.10;14.30;;;;;;;11.40;65.69;100966.77;139378;1190;108529;-79
2021/11/06 13:02:10;;;;;;;14.00;6.30;;;;;;;11.44;65.67;100965.09;139435;1190;108624;-81
2021/11/06 13:05:15;;;;;;;10.10;5.50;;;;;;;11.50;65.54;100972.20;139386;1189;107601;-81
2021/11/06 13:08:22;;;;;;;27.30;15.40;;;;;;;11.57;65.24;100971.83;139579;1181;108746;-80
2021/11/06 13:11:42;;;;;;;18.50;12.00;;;;;;;11.63;65.14;100975.63;139483;1190;108347;-80
2021/11/06 13:14:50;;;;;;;13.60;7.40;;;;;;;11.61;64.79;100983.02;139650;1190;108622;-81
2021/11/06 13:17:56;;;;;;;15.30;8.60;;;;;;;11.57;65.12;100982.58;139679;1190;107943;-78
2021/11/06 13:21:02;;;;;;;8.00;5.00;;;;;;;11.55;65.08;100979.02;139703;1188;108614;-81
2021/11/06 13:24:07;;;;;;;10.60;6.20;;;;;;;11.53;64.94;100977.17;139600;1190;108794;-80
2021/11/06 13:27:33;;;;;;;9.80;6.80;;;;;;;11.52;65.11;100982.14;139674;1188;108550;-81
2021/11/06 13:30:45;;;;;;;25.50;15.90;;;;;;;11.52;65.27;100982.86;140010;1190;108670;-79
2021/11/06 13:33:51;;;;;;;17.60;9.70;;;;;;;11.49;65.40;100985.82;139428;1180;107818;-79
2021/11/06 13:36:56;;;;;;;16.90;12.50;;;;;;;11.46;65.41;100984.13;139357;1190;108442;-78
2021/11/06 13:40:05;;;;;;;10.00;5.50;;;;;;;11.40;65.24;100988.38;139720;1189;108246;-82
2021/11/06 13:43:20;;;;;;;8.10;4.10;;;;;;;11.29;65.14;100982.95;139660;1190;107447;-82
2021/11/06 13:46:41;;;;;;;10.50;4.90;;;;;;;11.19;65.23;100988.50;139534;1190;108406;-81
2021/11/06 13:49:46;;;;;;;6.70;3.30;;;;;;;11.12;65.32;100984.19;139427;1190;108409;-80
2021/11/06 13:52:58;;;;;;;26.90;10.50;;;;;;;11.08;65.48;100990.44;139447;1189;108246;-82
2021/11/06 13:56:04;;;;;;;9.20;5.20;;;;;;;11.07;65.28;100988.02;139500;1190;107286;-83
2021/11/06 13:59:10;;;;;;;10.30;5.50;;;;;;;11.08;65.16;100989.20;139542;1190;107434;-86